Riverhurst, Canada
Current Conditions -  °F | °C
As of 12:00 PM on Saturday 20 Dec 2014 (Local Time) from CYYN Reporting Station
NA  
Wind Chill: 20°   Ceiling: NA
Heat Index: 32°   Visibility: 9mi
Dew Point: 27°   Wind: 21mph
Humidity: 80%   Direction: 270°W
Pressure: 29.7"   Gusts: NA
Location:  50.92°N, 106.85°W
Report Text: CYYN 201800Z AUTO 27018KT 9SM M00/M03 A2970 RMK CLD MISG SLP087
Loading
Personal Weather Stations






























Interactive Weather Map New forecast layout! Learn more

10-Day Weather Forecast

Advertisements
Track Severe Weather on mobile